Time;durP1;ratioP1;P1;durP2;ratioP2;P2;SDS_P1;SDS_P2;PMS_P1;PMS_P2;Temp;Humidity;BMP_temperature;BMP_pressure;BME280_temperature;BME280_humidity;BME280_pressure;Samples;Min_cycle;Max_cycle;Signal;HPM_P1;HPM_P2
2021/04/13 00:01:20;;;;;;;14.23;9.88;;;;;;;3.01;85.72;98653.44;1790114;80;21044;-72
2021/04/13 00:03:50;;;;;;;16.25;8.68;;;;;;;3.01;86.32;98658.27;1789080;79;21493;-73
2021/04/13 00:06:28;;;;;;;15.18;9.53;;;;;;;2.85;86.13;98662.80;1790214;80;21207;-73
2021/04/13 00:09:20;;;;;;;16.55;9.38;;;;;;;2.67;86.18;98660.83;1790117;80;21083;-74
2021/04/13 00:11:47;;;;;;;12.90;8.70;;;;;;;2.70;86.60;98661.73;1790099;80;21052;-73
2021/04/13 00:14:17;;;;;;;13.18;8.40;;;;;;;2.65;86.66;98658.89;1790206;80;21188;-73
2021/04/13 00:16:45;;;;;;;14.53;8.08;;;;;;;2.63;86.87;98662.79;1790203;80;21480;-74
2021/04/13 00:19:12;;;;;;;10.78;7.15;;;;;;;2.63;86.84;98661.45;1790257;80;21209;-74
2021/04/13 00:21:42;;;;;;;10.15;7.17;;;;;;;2.58;86.60;98663.97;1790089;80;21031;-74
2021/04/13 00:24:13;;;;;;;10.43;6.90;;;;;;;2.70;85.94;98664.41;1790172;80;21075;-73
2021/04/13 00:26:39;;;;;;;10.28;6.92;;;;;;;2.74;85.83;98667.50;1790108;80;21416;-74
2021/04/13 00:29:11;;;;;;;9.28;6.47;;;;;;;2.73;85.48;98671.17;1733431;80;21127;-75
2021/04/13 00:31:44;;;;;;;11.20;6.60;;;;;;;2.66;85.60;98672.57;1790172;80;21320;-72
2021/04/13 00:34:31;;;;;;;8.68;6.10;;;;;;;2.66;85.56;98674.42;1790072;80;21067;-74
2021/04/13 00:37:13;;;;;;;8.35;5.65;;;;;;;2.53;85.11;98673.95;1789596;80;21417;-73
2021/04/13 00:39:55;;;;;;;8.93;5.85;;;;;;;2.59;84.71;98666.94;1847487;76;23205;-73
2021/04/13 00:42:29;;;;;;;11.40;6.20;;;;;;;2.57;84.74;98668.50;1786804;78;20965;-74
2021/04/13 00:45:00;;;;;;;13.20;6.72;;;;;;;2.47;84.78;98672.11;1786016;80;21352;-74
2021/04/13 00:47:33;;;;;;;14.33;7.47;;;;;;;2.42;84.52;98668.75;1755250;80;21503;-74
2021/04/13 00:50:03;;;;;;;8.23;5.12;;;;;;;2.36;84.49;98670.92;1785989;80;20940;-74
2021/04/13 00:52:37;;;;;;;11.95;6.03;;;;;;;2.15;85.57;98678.71;1785801;80;20940;-73
2021/04/13 00:55:08;;;;;;;10.20;6.45;;;;;;;2.22;85.45;98678.67;1785911;79;21066;-73
2021/04/13 00:57:45;;;;;;;12.50;6.87;;;;;;;2.23;85.57;98687.84;1754999;80;22128;-73
2021/04/13 01:00:24;;;;;;;6.40;4.47;;;;;;;2.28;84.91;98689.05;1785852;79;21468;-74
2021/04/13 01:02:57;;;;;;;7.10;4.87;;;;;;;2.18;85.25;98687.64;1783057;80;21069;-74
2021/04/13 01:05:23;;;;;;;7.62;4.37;;;;;;;2.11;85.48;98695.37;1756918;79;21579;-73
2021/04/13 01:07:52;;;;;;;7.62;3.95;;;;;;;1.94;85.72;98693.13;1730546;80;21055;-73
2021/04/13 01:10:32;;;;;;;5.00;3.30;;;;;;;1.91;85.82;98696.23;1786074;79;21199;-73
2021/04/13 01:13:17;;;;;;;6.42;2.80;;;;;;;1.95;85.08;98697.44;1785882;80;21051;-73
2021/04/13 01:15:46;;;;;;;4.80;2.35;;;;;;;2.01;85.09;98701.15;1785869;79;21122;-73
2021/04/13 01:18:17;;;;;;;4.17;2.50;;;;;;;1.92;85.53;98699.72;1785793;79;21098;-73
2021/04/13 01:20:55;;;;;;;2.80;2.20;;;;;;;2.00;84.96;98697.34;1785954;79;21479;-73
2021/04/13 01:23:31;;;;;;;3.50;2.33;;;;;;;2.09;84.52;98706.27;1785973;80;21220;-72
2021/04/13 01:25:59;;;;;;;5.80;2.60;;;;;;;2.12;84.75;98705.03;1750267;82;21517;-74
2021/04/13 01:28:29;;;;;;;3.72;2.50;;;;;;;2.05;84.74;98706.40;1733085;82;21058;-73
2021/04/13 01:34:08;;;;;;;3.67;2.00;;;;;;;2.05;84.50;98713.57;1732997;82;21037;-73
2021/04/13 01:36:36;;;;;;;;;;;;;;;2.07;83.76;98715.03;1735609;81;22159;-73
2021/04/13 01:39:15;;;;;;;3.70;2.42;;;;;;;2.00;84.09;98714.73;1733288;82;20490;-73
2021/04/13 01:41:59;;;;;;;4.00;1.87;;;;;;;2.03;83.32;98713.78;1734443;81;21132;-73
2021/04/13 01:44:51;;;;;;;5.15;2.33;;;;;;;2.04;83.23;98710.59;1733816;82;21046;-73
2021/04/13 01:47:20;;;;;;;4.10;2.12;;;;;;;2.02;83.67;98719.34;1734129;81;21025;-73
2021/04/13 01:49:54;;;;;;;3.10;1.90;;;;;;;2.02;83.81;98721.50;1733574;82;21287;-73
2021/04/13 01:52:37;;;;;;;4.47;2.10;;;;;;;1.95;84.58;98720.68;1847370;76;22452;-73
2021/04/13 01:55:10;;;;;;;4.12;2.35;;;;;;;1.91;84.15;98722.95;1817356;78;20952;-74
2021/04/13 01:57:56;;;;;;;5.15;2.98;;;;;;;1.87;84.48;98729.73;1785963;80;21133;-74
2021/04/13 02:00:46;;;;;;;23.00;7.40;;;;;;;1.83;83.97;98732.52;1785889;79;21198;-74
2021/04/13 02:03:20;;;;;;;19.95;9.00;;;;;;;1.76;84.93;98735.70;1785918;80;20948;-74
2021/04/13 02:05:50;;;;;;;13.60;5.80;;;;;;;1.77;83.98;98736.00;1785838;79;21082;-73
2021/04/13 02:08:30;;;;;;;20.40;7.55;;;;;;;1.76;84.79;98737.55;1785973;79;21125;-73
2021/04/13 02:11:07;;;;;;;18.37;7.20;;;;;;;1.78;84.59;98743.51;1750976;82;21207;-73
2021/04/13 02:13:43;;;;;;;12.33;5.85;;;;;;;1.72;84.50;98744.34;1733032;82;21129;-73
2021/04/13 02:16:14;;;;;;;7.92;4.10;;;;;;;1.80;84.29;98750.31;1732371;81;21097;-73
2021/04/13 02:18:47;;;;;;;8.53;3.80;;;;;;;1.77;84.34;98745.36;1732584;82;21097;-73
2021/04/13 02:21:28;;;;;;;8.98;4.58;;;;;;;1.74;84.53;98748.45;1733019;81;21073;-73
2021/04/13 02:23:54;;;;;;;5.45;2.62;;;;;;;1.78;84.37;98742.99;1785210;80;22036;-73
2021/04/13 02:26:20;;;;;;;;;;;;;;;1.66;84.76;98739.30;1788478;79;21046;-73
2021/04/13 02:28:47;;;;;;;4.62;2.40;;;;;;;1.65;85.10;98746.50;1785852;80;20198;-73
2021/04/13 02:31:36;;;;;;;3.20;2.15;;;;;;;1.63;84.95;98748.56;1785876;79;21106;-73
2021/04/13 02:33:43;;;;;;;3.40;2.67;;;;;;;1.55;85.43;98744.75;1727953;82;21085;-73
2021/04/13 02:36:18;;;;;;;3.90;2.65;;;;;;;1.51;85.98;98753.36;1732338;80;21429;-73
2021/04/13 02:38:48;;;;;;;3.92;2.60;;;;;;;1.56;85.33;98752.25;1785773;80;21093;-74
2021/04/13 02:41:26;;;;;;;5.33;2.55;;;;;;;1.57;85.42;98752.55;1785817;79;21511;-75
2021/04/13 02:43:54;;;;;;;4.03;2.92;;;;;;;1.64;84.83;98752.88;1785840;80;21101;-73
2021/04/13 02:46:28;;;;;;;4.50;2.67;;;;;;;1.72;84.71;98753.70;1680878;82;21454;-73
2021/04/13 02:49:13;;;;;;;9.68;4.47;;;;;;;1.83;84.63;98745.06;1785845;80;21186;-74
2021/04/13 02:51:49;;;;;;;4.78;3.10;;;;;;;1.90;84.65;98752.57;1785719;79;21027;-73
2021/04/13 02:54:30;;;;;;;4.45;3.27;;;;;;;1.88;84.77;98745.25;1726807;82;21125;-74
2021/04/13 02:57:24;;;;;;;4.40;2.87;;;;;;;1.89;84.21;98746.92;1785843;79;21133;-74
2021/04/13 02:59:50;;;;;;;4.65;2.95;;;;;;;1.90;84.26;98752.57;1785952;80;21102;-74
2021/04/13 03:02:40;;;;;;;3.72;2.60;;;;;;;1.89;84.39;98753.60;1785598;79;21186;-74
2021/04/13 03:05:16;;;;;;;4.87;3.35;;;;;;;1.91;83.61;98755.55;1784554;79;21119;-74
2021/04/13 03:07:42;;;;;;;4.40;2.95;;;;;;;1.96;83.28;98756.55;1785273;80;21166;-75
2021/04/13 03:10:11;;;;;;;4.70;2.67;;;;;;;1.86;83.58;98756.67;1785334;79;21118;-75
2021/04/13 03:12:41;;;;;;;4.50;3.10;;;;;;;1.94;83.24;98761.29;1785400;80;21043;-75
2021/04/13 03:15:10;;;;;;;4.50;3.30;;;;;;;1.98;83.08;98762.54;1785351;79;23163;-75
2021/04/13 03:17:37;;;;;;;8.63;4.72;;;;;;;2.01;83.27;98760.48;1785238;80;21440;-72
2021/04/13 03:20:09;;;;;;;8.03;5.10;;;;;;;2.02;83.19;98760.78;1785343;79;21543;-72
2021/04/13 03:22:37;;;;;;;8.95;5.20;;;;;;;2.01;83.05;98755.95;1785299;80;21114;-73
2021/04/13 03:25:06;;;;;;;7.20;4.45;;;;;;;1.97;83.31;98758.74;1757111;79;21488;-73
2021/04/13 03:27:33;;;;;;;5.87;4.37;;;;;;;1.86;83.28;98762.83;1785338;80;22038;-73
2021/04/13 03:30:24;;;;;;;7.75;5.10;;;;;;;1.87;83.14;98766.33;1785266;80;21106;-73
2021/04/13 03:33:04;;;;;;;5.70;3.70;;;;;;;1.90;83.34;98771.28;1785299;80;21122;-73
2021/04/13 03:35:31;;;;;;;6.40;4.47;;;;;;;1.93;82.68;98769.52;1785240;79;21031;-73
2021/04/13 03:37:58;;;;;;;4.25;3.15;;;;;;;2.00;82.71;98773.54;1785217;80;21150;-74
2021/04/13 03:40:27;;;;;;;5.35;3.52;;;;;;;1.92;82.92;98779.39;1785240;79;21191;-73
2021/04/13 03:43:00;;;;;;;4.40;3.50;;;;;;;1.87;82.95;98775.68;1756546;80;21102;-73
2021/04/13 03:45:27;;;;;;;5.42;4.28;;;;;;;1.77;82.74;98776.61;1750124;82;21053;-73
2021/04/13 03:47:53;;;;;;;6.60;4.08;;;;;;;1.75;83.05;98778.16;1732405;82;21138;-74
2021/04/13 03:50:27;;;;;;;6.97;4.40;;;;;;;1.76;82.98;98782.98;1732467;81;21136;-73
2021/04/13 03:53:05;;;;;;;7.22;4.72;;;;;;;1.71;83.37;98780.94;1732389;82;21202;-73
2021/04/13 03:55:31;;;;;;;6.58;4.85;;;;;;;1.70;83.73;98782.76;1732597;81;21557;-73
2021/04/13 03:57:57;;;;;;;11.28;5.60;;;;;;;1.66;83.38;98786.88;1732437;82;21061;-73
2021/04/13 04:00:26;;;;;;;15.55;7.35;;;;;;;1.73;83.22;98790.08;1732491;81;21192;-73
2021/04/13 04:02:53;;;;;;;12.00;5.85;;;;;;;1.67;84.31;98795.20;1732564;82;21101;-74
2021/04/13 04:05:24;;;;;;;10.40;5.20;;;;;;;1.73;83.29;98796.25;1732419;81;21217;-73
2021/04/13 04:07:56;;;;;;;5.47;4.22;;;;;;;1.79;82.94;98792.73;1785177;80;21067;-74
2021/04/13 04:10:37;;;;;;;5.17;3.85;;;;;;;1.83;82.99;98794.50;1784868;79;21634;-73
2021/04/13 04:13:05;;;;;;;6.58;4.47;;;;;;;1.87;82.85;98791.72;1785212;80;21311;-72
2021/04/13 04:15:41;;;;;;;12.65;7.05;;;;;;;1.84;82.86;98802.83;1785386;79;21126;-73
2021/04/13 04:18:32;;;;;;;9.95;7.08;;;;;;;1.76;83.03;98809.70;1785252;80;21184;-73
2021/04/13 04:21:01;;;;;;;13.25;7.50;;;;;;;1.77;82.95;98807.34;1785090;79;21071;-73
2021/04/13 04:23:32;;;;;;;13.00;7.65;;;;;;;1.64;83.73;98813.50;1731740;82;21097;-73
2021/04/13 04:26:02;;;;;;;10.40;6.17;;;;;;;1.62;83.24;98818.20;1785164;79;21035;-73
2021/04/13 04:28:40;;;;;;;7.97;5.58;;;;;;;1.62;83.52;98810.19;1784832;80;21475;-74
2021/04/13 04:31:35;;;;;;;8.80;6.40;;;;;;;1.51;84.16;98814.28;1785415;79;22063;-73
2021/04/13 04:34:19;;;;;;;8.80;5.58;;;;;;;1.50;83.87;98818.50;1784611;80;21542;-74
2021/04/13 04:36:53;;;;;;;8.03;5.25;;;;;;;1.54;84.21;98823.25;1784717;79;21067;-73
2021/04/13 04:39:35;;;;;;;6.03;4.90;;;;;;;1.60;83.88;98822.41;1785184;80;21111;-73
2021/04/13 04:42:09;;;;;;;5.87;4.17;;;;;;;1.64;83.67;98828.20;1785274;79;21503;-74
2021/04/13 04:44:34;;;;;;;6.45;4.72;;;;;;;1.64;83.60;98829.02;1785013;80;21195;-74
2021/04/13 04:47:00;;;;;;;8.63;4.75;;;;;;;1.54;84.21;98839.27;1785077;79;21078;-74
2021/04/13 04:49:40;;;;;;;7.70;4.85;;;;;;;1.53;83.80;98845.61;1785192;80;21519;-75
2021/04/13 04:52:06;;;;;;;8.18;6.10;;;;;;;1.55;83.32;98840.92;1783171;79;21392;-73
2021/04/13 04:54:32;;;;;;;7.70;4.53;;;;;;;1.57;83.98;98840.20;1731094;82;21517;-73
2021/04/13 04:56:59;;;;;;;10.03;5.72;;;;;;;1.57;83.37;98846.88;1762146;81;21274;-73
2021/04/13 04:59:25;;;;;;;8.93;6.53;;;;;;;1.63;83.00;98847.41;1780800;80;21130;-74
2021/04/13 05:01:51;;;;;;;10.23;5.55;;;;;;;1.66;83.25;98847.52;1731893;81;21167;-73
2021/04/13 05:04:17;;;;;;;7.90;4.90;;;;;;;1.64;83.18;98846.38;1780704;80;21152;-74
2021/04/13 05:06:43;;;;;;;8.25;5.03;;;;;;;1.72;82.85;98855.24;1762116;81;21125;-73
2021/04/13 05:09:10;;;;;;;8.23;5.65;;;;;;;1.70;82.87;98852.75;1780738;80;21291;-74
2021/04/13 05:11:36;;;;;;;9.23;5.05;;;;;;;1.70;83.10;98852.23;1736232;81;21041;-74
2021/04/13 05:14:02;;;;;;;7.15;5.10;;;;;;;1.62;83.23;98859.61;1780858;80;20984;-74
2021/04/13 05:16:28;;;;;;;7.90;4.97;;;;;;;1.63;82.97;98855.43;1762193;81;21164;-74
2021/04/13 05:18:54;;;;;;;11.20;3.72;;;;;;;1.64;83.34;98856.25;1780879;80;21087;-73
2021/04/13 05:21:21;;;;;;;5.35;3.77;;;;;;;1.53;83.92;98856.81;1731841;81;21199;-74
2021/04/13 05:23:48;;;;;;;9.65;6.58;;;;;;;1.37;84.19;98860.69;1780678;80;20933;-73
2021/04/13 05:26:14;;;;;;;8.60;7.00;;;;;;;1.34;84.14;98858.41;1762189;81;21116;-73
2021/04/13 05:28:40;;;;;;;17.05;15.35;;;;;;;1.29;84.77;98863.02;1749896;81;21169;-74
2021/04/13 05:31:06;;;;;;;24.07;18.23;;;;;;;1.34;84.75;98866.41;1749878;82;21424;-74
2021/04/13 05:33:32;;;;;;;27.93;22.65;;;;;;;1.29;85.31;98856.86;1749795;82;22157;-74
2021/04/13 05:36:01;;;;;;;35.88;24.63;;;;;;;1.33;86.02;98858.09;1749809;82;21440;-73
2021/04/13 05:38:34;;;;;;;202.90;128.38;;;;;;;1.37;85.90;98862.03;1780822;80;21027;-74
2021/04/13 05:41:03;;;;;;;251.32;159.93;;;;;;;1.32;85.72;98863.13;1780748;79;21012;-74
2021/04/13 05:43:29;;;;;;;;;;;;;;;1.34;85.46;98860.56;1783072;80;21021;-74
2021/04/13 05:46:00;;;;;;;47.38;31.45;;;;;;;1.36;85.57;98855.84;1730423;83;21214;-74
2021/04/13 05:48:26;;;;;;;45.08;29.12;;;;;;;1.32;85.18;98857.78;1780637;80;21035;-73
2021/04/13 05:50:53;;;;;;;27.25;16.87;;;;;;;1.39;85.11;98858.64;1762169;81;21108;-73
2021/04/13 05:53:19;;;;;;;22.55;16.42;;;;;;;1.40;85.22;98865.63;1756720;80;21023;-73
2021/04/13 05:55:45;;;;;;;16.45;10.30;;;;;;;1.49;84.65;98864.94;1785227;79;21114;-73
2021/04/13 05:58:24;;;;;;;26.80;20.10;;;;;;;1.45;84.80;98871.17;1785218;80;21205;-73
2021/04/13 06:00:52;;;;;;;20.00;12.13;;;;;;;1.61;84.35;98874.00;1703685;82;21045;-74
2021/04/13 06:03:20;;;;;;;14.28;8.08;;;;;;;1.60;84.73;98875.03;1785295;80;21051;-74
2021/04/13 06:05:47;;;;;;;9.10;6.28;;;;;;;1.51;84.29;98873.56;1785080;79;21015;-74
2021/04/13 06:08:13;;;;;;;8.58;5.92;;;;;;;1.64;83.86;98882.45;1785127;80;21094;-74
2021/04/13 06:10:41;;;;;;;9.30;4.95;;;;;;;1.65;83.52;98880.09;1785089;79;21396;-73
2021/04/13 06:13:07;;;;;;;9.93;6.87;;;;;;;1.61;83.26;98886.02;1784999;80;21062;-74
2021/04/13 06:15:34;;;;;;;12.88;7.03;;;;;;;1.66;83.59;98888.41;1785190;79;21098;-74
2021/04/13 06:18:00;;;;;;;11.78;6.33;;;;;;;1.65;83.37;98885.95;1785100;80;21019;-74
2021/04/13 06:20:28;;;;;;;8.50;5.37;;;;;;;1.69;83.24;98892.01;1785120;79;21012;-74
2021/04/13 06:22:54;;;;;;;8.98;6.15;;;;;;;1.74;83.35;98894.60;1785112;80;21258;-73
2021/04/13 06:25:23;;;;;;;11.48;6.97;;;;;;;1.69;83.47;98904.03;1785022;79;21260;-73
2021/04/13 06:27:50;;;;;;;8.90;6.20;;;;;;;1.75;83.18;98905.09;1785297;80;21059;-73
2021/04/13 06:30:17;;;;;;;8.10;6.15;;;;;;;1.79;82.75;98903.64;1785075;79;21071;-73
2021/04/13 06:32:44;;;;;;;8.00;5.15;;;;;;;1.75;83.06;98905.60;1785092;80;21063;-74
2021/04/13 06:35:10;;;;;;;7.65;5.28;;;;;;;1.68;83.42;98906.91;1785096;79;21907;-74
2021/04/13 06:37:40;;;;;;;10.85;7.20;;;;;;;1.67;83.04;98911.43;1785072;80;21494;-73
2021/04/13 06:40:08;;;;;;;8.70;5.85;;;;;;;1.69;82.70;98912.56;1757526;79;21495;-74
2021/04/13 06:43:17;;;;;;;15.58;11.45;;;;;;;1.66;83.57;98917.80;1785227;80;21534;-73
2021/04/13 06:46:13;;;;;;;15.50;12.28;;;;;;;1.77;83.11;98912.89;1750271;82;21124;-74
2021/04/13 06:49:04;;;;;;;19.40;15.80;;;;;;;1.74;83.34;98915.47;1732475;82;21319;-74
2021/04/13 06:51:47;;;;;;;14.05;9.83;;;;;;;1.68;83.06;98918.42;1785165;79;21047;-73
2021/04/13 06:54:40;;;;;;;9.45;8.53;;;;;;;1.81;82.79;98912.82;1785087;80;21134;-74
2021/04/13 06:57:29;;;;;;;8.45;6.40;;;;;;;1.84;82.90;98915.91;1785007;79;21035;-74
2021/04/13 07:00:08;;;;;;;6.78;5.40;;;;;;;1.87;82.54;98918.16;1785303;80;21528;-74
2021/04/13 07:02:58;;;;;;;10.38;5.70;;;;;;;1.79;82.28;98918.34;1785257;80;22096;-74
2021/04/13 07:05:38;;;;;;;11.93;6.62;;;;;;;1.74;82.57;98922.15;1785198;79;21177;-74
2021/04/13 07:08:33;;;;;;;7.45;5.50;;;;;;;1.89;82.54;98921.48;1890262;76;22501;-74
2021/04/13 07:11:25;;;;;;;12.00;6.00;;;;;;;1.97;82.74;98924.48;1847278;77;20959;-73
2021/04/13 07:14:16;;;;;;;7.60;4.83;;;;;;;2.02;82.44;98923.34;1827331;78;21206;-73
2021/04/13 07:17:11;;;;;;;10.58;5.87;;;;;;;1.96;82.42;98915.61;1827225;77;20912;-74
2021/04/13 07:20:10;;;;;;;9.88;6.35;;;;;;;1.91;82.55;98921.27;1827387;78;21108;-73
2021/04/13 07:23:19;;;;;;;8.95;7.00;;;;;;;1.96;82.33;98924.97;1847352;76;22543;-72
2021/04/13 07:26:02;;;;;;;13.05;9.80;;;;;;;2.05;82.46;98923.44;1856369;76;27703;-73
2021/04/13 07:28:36;;;;;;;10.90;7.62;;;;;;;2.13;81.86;98930.76;1817953;78;20963;-74
2021/04/13 07:31:04;;;;;;;10.78;6.85;;;;;;;2.18;81.97;98928.83;1819221;77;22043;-74
2021/04/13 07:33:32;;;;;;;7.40;5.22;;;;;;;1.90;82.52;98925.80;1819442;78;20939;-73
2021/04/13 07:36:10;;;;;;;8.30;6.05;;;;;;;1.91;82.53;98926.10;1819598;77;21499;-73
2021/04/13 07:38:43;;;;;;;11.60;5.85;;;;;;;1.98;82.19;98929.62;1818567;78;21106;-74
2021/04/13 07:41:23;;;;;;;11.12;6.92;;;;;;;1.86;82.72;98928.55;1819566;77;21063;-74
2021/04/13 07:44:08;;;;;;;8.35;6.00;;;;;;;1.87;83.26;98924.84;1819571;78;22015;-73
2021/04/13 07:47:07;;;;;;;8.73;6.45;;;;;;;1.94;82.84;98925.69;1819448;77;21008;-73
2021/04/13 07:49:50;;;;;;;12.05;6.70;;;;;;;1.98;83.46;98930.13;1819501;78;21056;-73
2021/04/13 07:52:30;;;;;;;12.85;8.83;;;;;;;2.12;82.49;98938.47;1819444;77;21082;-73
2021/04/13 07:55:39;;;;;;;10.98;7.75;;;;;;;2.22;82.29;98934.06;1819490;78;21091;-74
2021/04/13 07:58:16;;;;;;;10.72;6.22;;;;;;;2.09;82.67;98938.06;1819142;78;21189;-74
2021/04/13 08:00:44;;;;;;;9.98;6.45;;;;;;;1.96;83.22;98933.50;1819070;77;21086;-74
2021/04/13 08:03:24;;;;;;;6.92;4.25;;;;;;;1.85;83.12;98928.75;1819612;78;21055;-74
2021/04/13 08:05:55;;;;;;;6.65;4.45;;;;;;;1.86;83.06;98932.55;1819495;77;21413;-73
2021/04/13 08:08:37;;;;;;;6.25;3.98;;;;;;;1.88;83.28;98928.34;1819631;78;21063;-74
2021/04/13 08:11:20;;;;;;;8.25;4.72;;;;;;;1.79;83.55;98931.70;1819476;77;21496;-73
2021/04/13 08:13:50;;;;;;;11.68;9.13;;;;;;;1.91;83.87;98932.78;1819358;78;20928;-73
2021/04/13 08:16:37;;;;;;;25.23;19.75;;;;;;;2.01;83.40;98932.91;1818612;77;21149;-74
2021/04/13 08:19:31;;;;;;;12.10;8.18;;;;;;;2.06;83.30;98935.81;1819466;78;21146;-73
2021/04/13 08:22:13;;;;;;;14.18;9.65;;;;;;;2.03;83.80;98930.84;1819463;77;21071;-73
2021/04/13 08:24:45;;;;;;;12.40;9.33;;;;;;;2.07;83.56;98934.27;1819425;78;21192;-73
2021/04/13 08:27:45;;;;;;;12.95;6.62;;;;;;;2.07;83.89;98938.28;1819501;77;21011;-73
2021/04/13 08:30:45;;;;;;;19.15;13.15;;;;;;;2.06;83.44;98935.30;1819424;77;21032;-73
2021/04/13 08:33:32;;;;;;;13.58;10.63;;;;;;;2.05;83.15;98927.45;1819447;78;21118;-73
2021/04/13 08:36:06;;;;;;;14.40;9.65;;;;;;;2.04;84.02;98925.81;1819291;77;21456;-74
2021/04/13 08:38:54;;;;;;;15.60;10.05;;;;;;;2.15;83.34;98921.22;1818889;79;21123;-74
2021/04/13 08:41:59;;;;;;;26.45;15.40;;;;;;;2.24;83.39;98919.48;1818715;77;21016;-74
2021/04/13 08:44:54;;;;;;;18.40;12.33;;;;;;;2.30;83.31;98918.34;1818916;79;21122;-73
2021/04/13 08:47:42;;;;;;;11.73;8.03;;;;;;;2.37;83.09;98919.17;1818842;77;21031;-73
2021/04/13 08:50:31;;;;;;;9.68;6.85;;;;;;;2.42;82.61;98914.86;1818889;77;21070;-73
2021/04/13 08:53:16;;;;;;;14.50;8.95;;;;;;;2.23;82.93;98923.19;1819026;78;22138;-73
2021/04/13 08:55:45;;;;;;;13.15;9.48;;;;;;;2.27;83.20;98922.25;1813150;77;21106;-73
2021/04/13 08:58:21;;;;;;;12.60;8.98;;;;;;;2.18;84.24;98922.96;1818896;78;21074;-73
2021/04/13 09:00:50;;;;;;;9.38;7.65;;;;;;;2.19;83.92;98919.26;1818761;77;21110;-74
2021/04/13 09:03:23;;;;;;;13.70;9.38;;;;;;;2.18;83.97;98922.14;1819110;79;21094;-73
2021/04/13 09:06:10;;;;;;;11.10;7.28;;;;;;;2.12;84.30;98918.94;1789356;79;21190;-74
2021/04/13 09:09:07;;;;;;;10.50;7.20;;;;;;;2.23;83.62;98915.16;1795128;79;21118;-74
2021/04/13 09:12:05;;;;;;;12.35;7.83;;;;;;;2.32;83.22;98913.63;1818907;77;21404;-73
2021/04/13 09:14:37;;;;;;;15.50;11.07;;;;;;;2.26;83.49;98909.91;1819088;78;21437;-74
2021/04/13 09:17:24;;;;;;;11.40;8.18;;;;;;;2.24;83.76;98906.11;1818952;77;21758;-75
2021/04/13 09:20:02;;;;;;;15.63;10.70;;;;;;;2.37;83.63;98906.61;1818088;79;21394;-73
2021/04/13 09:22:35;;;;;;;11.53;8.68;;;;;;;2.36;83.45;98903.63;1819100;79;21472;-73
2021/04/13 09:25:35;;;;;;;18.80;11.65;;;;;;;2.47;83.00;98899.00;1818763;77;21015;-73
2021/04/13 09:28:18;;;;;;;15.95;10.20;;;;;;;2.49;82.91;98904.98;1818964;78;21475;-73
2021/04/13 09:30:47;;;;;;;15.23;9.65;;;;;;;2.66;82.92;98903.23;1818691;77;21051;-73
2021/04/13 09:33:30;;;;;;;13.98;9.75;;;;;;;2.67;82.92;98900.86;1818203;79;22062;-73
2021/04/13 09:36:19;;;;;;;18.87;11.95;;;;;;;2.83;82.40;98899.92;1818740;77;21113;-73
2021/04/13 09:39:33;;;;;;;17.20;12.18;;;;;;;2.77;82.68;98893.23;1819033;79;21098;-73
2021/04/13 09:42:29;;;;;;;22.87;12.18;;;;;;;2.94;82.87;98894.95;1812086;77;21114;-73
2021/04/13 09:45:23;;;;;;;16.80;11.05;;;;;;;2.97;82.12;98890.50;1818894;78;21004;-74
2021/04/13 09:48:13;;;;;;;14.45;8.30;;;;;;;2.94;82.11;98890.94;1818774;78;22249;-73
2021/04/13 09:51:11;;;;;;;12.68;7.33;;;;;;;2.71;81.15;98886.84;1818731;77;21082;-73
2021/04/13 09:53:47;;;;;;;10.38;6.35;;;;;;;2.70;80.93;98891.06;1818834;79;21067;-74
2021/04/13 09:56:55;;;;;;;7.17;5.45;;;;;;;2.62;80.73;98888.09;1818551;77;21468;-74
2021/04/13 10:00:03;;;;;;;11.12;5.95;;;;;;;2.74;81.34;98888.30;1818960;79;21471;-73
2021/04/13 10:02:49;;;;;;;11.45;7.47;;;;;;;2.65;80.18;98887.69;1819079;78;21188;-73
2021/04/13 10:05:19;;;;;;;11.10;8.40;;;;;;;2.72;81.26;98886.32;1812111;77;21102;-73
2021/04/13 10:08:08;;;;;;;13.43;10.13;;;;;;;2.79;81.68;98885.28;1819019;79;21535;-73
2021/04/13 10:11:10;;;;;;;17.23;11.00;;;;;;;2.77;82.32;98879.33;1818761;77;21026;-73
2021/04/13 10:14:26;;;;;;;10.40;8.00;;;;;;;2.77;82.26;98879.84;1818775;79;21130;-73
2021/04/13 10:17:12;;;;;;;14.38;9.25;;;;;;;2.75;81.92;98873.36;1806721;77;21043;-73
2021/04/13 10:20:09;;;;;;;12.45;7.70;;;;;;;2.75;81.75;98877.90;1818717;79;21194;-72
2021/04/13 10:22:52;;;;;;;11.80;7.25;;;;;;;2.79;81.56;98877.25;1818937;79;21515;-73
2021/04/13 10:25:45;;;;;;;17.42;12.13;;;;;;;2.80;81.56;98870.05;1818889;77;21078;-73
2021/04/13 10:29:02;;;;;;;18.75;11.43;;;;;;;2.86;82.03;98871.90;1819435;78;21048;-73
2021/04/13 10:32:03;;;;;;;19.52;12.18;;;;;;;2.87;82.42;98875.39;1819370;77;21298;-73
2021/04/13 10:35:07;;;;;;;18.10;11.35;;;;;;;2.72;82.69;98880.45;1799390;78;21067;-74
2021/04/13 10:37:59;;;;;;;16.80;9.08;;;;;;;2.82;82.66;98876.04;1819492;78;21459;-73
2021/04/13 10:40:52;;;;;;;20.10;11.75;;;;;;;2.78;81.85;98873.45;1819328;77;21595;-73
2021/04/13 10:43:44;;;;;;;13.18;7.60;;;;;;;2.81;81.43;98864.48;1819399;78;21063;-73
2021/04/13 10:46:30;;;;;;;12.60;7.97;;;;;;;2.66;81.49;98864.43;1818657;77;21441;-73
2021/04/13 10:49:31;;;;;;;14.68;9.05;;;;;;;2.70;81.76;98857.61;1819339;78;21464;-73
2021/04/13 10:51:54;;;;;;;16.32;9.28;;;;;;;2.65;81.92;98857.41;1804280;77;21491;-73
2021/04/13 10:54:40;;;;;;;18.42;11.97;;;;;;;2.36;81.80;98862.69;1819470;78;21051;-74
2021/04/13 10:57:46;;;;;;;17.85;12.43;;;;;;;2.55;81.83;98860.51;1803671;78;21107;-74
2021/04/13 11:00:37;;;;;;;15.03;10.78;;;;;;;2.58;82.17;98857.44;1819313;77;21355;-73
2021/04/13 11:03:42;;;;;;;20.08;11.00;;;;;;;2.48;82.91;98851.17;1819421;78;21476;-73
2021/04/13 11:06:23;;;;;;;16.32;8.93;;;;;;;2.47;83.45;98860.20;1819268;77;21063;-74
2021/04/13 11:09:00;;;;;;;14.47;8.93;;;;;;;2.54;83.02;98853.00;1819400;78;21095;-73
2021/04/13 11:12:05;;;;;;;15.35;9.83;;;;;;;2.60;83.31;98852.70;1819308;77;21059;-74
2021/04/13 11:15:14;;;;;;;15.00;8.40;;;;;;;2.71;83.87;98847.21;1819406;78;21184;-73
2021/04/13 11:18:12;;;;;;;15.32;9.98;;;;;;;2.95;83.25;98854.58;1818641;78;21066;-72
2021/04/13 11:21:18;;;;;;;23.02;12.40;;;;;;;2.87;83.02;98845.95;1817563;77;21130;-73
2021/04/13 11:23:53;;;;;;;18.90;11.60;;;;;;;2.99;83.01;98842.42;1819332;78;21098;-72
2021/04/13 11:26:45;;;;;;;16.85;10.72;;;;;;;2.96;82.45;98835.31;1818885;77;21471;-73
2021/04/13 11:29:47;;;;;;;19.42;11.93;;;;;;;3.08;82.04;98829.11;1818795;79;21883;-73
2021/04/13 11:32:37;;;;;;;17.67;12.03;;;;;;;3.03;82.97;98831.59;1818781;77;21412;-73
2021/04/13 11:35:34;;;;;;;21.00;12.15;;;;;;;2.91;83.61;98826.59;1817948;77;21202;-73
2021/04/13 11:38:14;;;;;;;17.57;12.20;;;;;;;2.99;83.12;98827.70;1818803;79;21051;-73
2021/04/13 11:41:10;;;;;;;15.03;11.12;;;;;;;2.91;83.08;98827.11;1817565;77;21008;-73
2021/04/13 11:43:40;;;;;;;12.18;6.83;;;;;;;2.72;82.83;98822.91;1818762;79;21180;-73
2021/04/13 11:46:12;;;;;;;9.63;6.90;;;;;;;2.71;82.86;98825.80;1818589;77;21479;-73
2021/04/13 11:49:20;;;;;;;11.95;8.23;;;;;;;2.89;82.17;98823.80;1788935;79;21067;-73
2021/04/13 11:51:59;;;;;;;12.40;8.73;;;;;;;2.98;82.17;98823.87;1818997;77;21083;-74
2021/04/13 11:54:48;;;;;;;;;;;;;;;3.06;81.78;98820.44;1821495;78;21484;-74
2021/04/13 11:57:20;;;;;;;13.53;7.53;;;;;;;3.03;82.13;98811.50;1819003;77;22038;-72
2021/04/13 12:00:19;;;;;;;10.50;6.10;;;;;;;3.11;82.46;98815.80;1818594;79;21499;-74
2021/04/13 12:02:46;;;;;;;;;;;;;;;3.14;81.82;98815.37;1821459;79;21098;-74
2021/04/13 12:05:29;;;;;;;10.30;7.95;;;;;;;3.11;81.67;98817.95;1818664;77;20456;-75
2021/04/13 12:07:55;;;;;;;10.78;7.55;;;;;;;3.06;81.65;98814.27;1789279;79;21015;-78
2021/04/13 12:10:37;;;;;;;8.75;5.40;;;;;;;3.11;82.57;98809.11;1818450;78;21310;-80
2021/04/13 12:13:08;;;;;;;9.70;6.10;;;;;;;3.19;82.08;98805.37;1818851;79;21077;-73
2021/04/13 12:15:42;;;;;;;7.30;5.40;;;;;;;3.27;82.44;98805.13;1818774;79;21046;-67
2021/04/13 12:18:39;;;;;;;10.60;6.80;;;;;;;3.34;81.87;98796.02;1814435;79;21086;-72
2021/04/13 12:21:29;;;;;;;9.30;5.65;;;;;;;3.47;81.71;98790.27;1819130;77;21090;-69
2021/04/13 12:24:04;;;;;;;7.95;5.15;;;;;;;3.70;81.59;98790.55;1818917;79;22523;-67
2021/04/13 12:26:38;;;;;;;7.30;4.72;;;;;;;3.70;81.05;98783.03;1818622;77;21030;-75
2021/04/13 12:29:35;;;;;;;10.38;5.85;;;;;;;3.65;80.99;98779.13;1818890;79;21050;-70
2021/04/13 12:32:19;;;;;;;7.70;4.85;;;;;;;3.53;81.17;98784.06;1818747;79;21035;-70
2021/04/13 12:35:01;;;;;;;9.48;5.03;;;;;;;3.44;80.34;98778.14;1818900;79;21106;-74